Time;durP1;ratioP1;P1;durP2;ratioP2;P2;SDS_P1;SDS_P2;PMS_P1;PMS_P2;Temp;Humidity;BMP_temperature;BMP_pressure;BME280_temperature;BME280_humidity;BME280_pressure;Samples;Min_cycle;Max_cycle;Signal;HPM_P1;HPM_P2
2023/06/01 00:00:15;;;;;;;13.73;7.50;;;;;;;12.83;84.02;102201.38;5012845;28;20413;-73
2023/06/01 00:02:42;;;;;;;16.27;8.18;;;;;;;12.73;83.77;102188.25;5008145;28;20196;-72
2023/06/01 00:05:07;;;;;;;19.77;8.30;;;;;;;12.64;83.76;102188.81;5007738;28;20350;-74
2023/06/01 00:07:33;;;;;;;18.30;7.70;;;;;;;12.64;83.62;102183.34;5007539;28;20088;-74
2023/06/01 00:10:00;;;;;;;14.48;8.07;;;;;;;12.56;82.92;102188.38;5007438;28;20033;-73
2023/06/01 00:12:25;;;;;;;17.08;8.80;;;;;;;12.48;84.12;102179.75;5009059;28;20045;-73
2023/06/01 00:14:51;;;;;;;16.77;8.65;;;;;;;12.46;83.47;102196.22;5016983;28;20853;-74
2023/06/01 00:17:16;;;;;;;14.57;8.10;;;;;;;12.46;83.05;102188.03;5008202;28;20053;-74
2023/06/01 00:19:44;;;;;;;15.93;8.30;;;;;;;12.47;83.94;102191.66;5007509;28;20140;-74
2023/06/01 00:22:10;;;;;;;15.00;8.00;;;;;;;12.50;82.85;102188.75;5007264;28;20042;-74
2023/06/01 00:24:36;;;;;;;14.65;7.88;;;;;;;12.52;82.58;102186.78;5007226;28;20505;-74
2023/06/01 00:27:02;;;;;;;16.65;7.97;;;;;;;12.52;82.85;102184.06;5006363;28;20131;-73
2023/06/01 00:29:28;;;;;;;18.83;8.10;;;;;;;12.51;83.21;102190.50;5007867;28;20517;-74
2023/06/01 00:31:53;;;;;;;12.05;8.15;;;;;;;12.54;82.23;102189.41;5007496;28;20025;-74
2023/06/01 00:34:19;;;;;;;17.40;8.75;;;;;;;12.54;82.34;102193.03;5007314;28;20037;-73
2023/06/01 00:36:44;;;;;;;21.27;8.35;;;;;;;12.40;83.63;102187.50;5007328;28;20049;-73
2023/06/01 00:39:10;;;;;;;16.48;8.70;;;;;;;12.28;83.73;102191.84;5005202;28;20072;-72
2023/06/01 00:41:35;;;;;;;15.80;8.68;;;;;;;12.18;84.11;102191.50;5013700;28;20040;-74
2023/06/01 00:44:00;;;;;;;19.55;8.93;;;;;;;12.09;83.82;102185.69;5010937;28;20045;-73
2023/06/01 00:46:26;;;;;;;18.23;9.25;;;;;;;12.06;84.03;102186.72;5025500;28;20021;-73
2023/06/01 00:48:52;;;;;;;15.25;9.25;;;;;;;11.97;84.55;102177.22;5023362;28;20036;-73
2023/06/01 00:51:19;;;;;;;16.15;9.93;;;;;;;11.93;84.94;102188.41;5007008;28;20047;-73
2023/06/01 00:53:44;;;;;;;14.85;9.07;;;;;;;11.86;85.50;102184.28;5005665;28;20146;-73
2023/06/01 00:56:11;;;;;;;17.23;9.27;;;;;;;11.78;85.74;102183.78;5006140;28;20485;-73
2023/06/01 00:58:38;;;;;;;18.33;9.50;;;;;;;11.61;86.57;102182.91;5018715;28;20053;-73
2023/06/01 01:01:03;;;;;;;20.73;10.05;;;;;;;11.55;86.49;102191.38;5028529;28;20504;-73
2023/06/01 01:03:31;;;;;;;18.33;9.82;;;;;;;11.48;86.58;102188.13;5005737;28;20034;-74
2023/06/01 01:06:11;;;;;;;20.52;10.02;;;;;;;11.50;86.67;102190.75;5006943;28;20087;-72
2023/06/01 01:08:43;;;;;;;19.13;9.98;;;;;;;11.37;87.57;102195.13;5005158;28;20516;-73
2023/06/01 01:11:23;;;;;;;22.67;10.77;;;;;;;11.29;87.62;102192.81;5003574;28;20350;-73
2023/06/01 01:14:01;;;;;;;19.52;10.57;;;;;;;11.25;87.68;102193.94;5010391;28;20108;-73
2023/06/01 01:16:35;;;;;;;21.30;9.98;;;;;;;11.19;87.89;102200.63;5005779;28;20038;-73
2023/06/01 01:19:07;;;;;;;24.70;10.55;;;;;;;11.13;88.32;102200.91;5005610;28;20060;-73
2023/06/01 01:21:38;;;;;;;17.88;10.13;;;;;;;11.08;87.80;102202.13;5020106;28;20102;-73
2023/06/01 01:24:23;;;;;;;17.85;9.88;;;;;;;11.05;88.08;102199.56;5008519;28;20037;-73
2023/06/01 01:27:08;;;;;;;24.20;10.98;;;;;;;10.94;88.91;102198.28;5023266;28;20423;-73
2023/06/01 01:29:37;;;;;;;23.00;9.75;;;;;;;10.84;89.88;102198.84;5024025;28;20124;-73
2023/06/01 01:32:05;;;;;;;18.65;11.63;;;;;;;10.83;89.45;102195.25;5025076;28;20017;-73
2023/06/01 01:34:31;;;;;;;23.13;10.68;;;;;;;10.79;90.04;102199.09;5025128;28;20061;-72
2023/06/01 01:36:58;;;;;;;26.08;12.38;;;;;;;10.69;89.48;102190.53;5008476;28;20432;-73
2023/06/01 01:39:24;;;;;;;25.88;12.23;;;;;;;10.64;90.73;102195.31;5005498;28;20505;-73
2023/06/01 01:41:49;;;;;;;24.80;11.85;;;;;;;10.58;90.42;102201.06;5004336;28;20080;-73
2023/06/01 01:44:17;;;;;;;22.08;11.52;;;;;;;10.58;91.15;102200.19;5018510;28;20026;-73
2023/06/01 01:46:56;;;;;;;20.98;11.98;;;;;;;10.56;90.50;102210.28;5006351;28;20042;-72
2023/06/01 01:49:27;;;;;;;22.10;11.88;;;;;;;10.45;90.55;102202.66;5008456;28;20117;-73
2023/06/01 01:52:12;;;;;;;21.77;11.55;;;;;;;10.46;89.93;102209.84;5008889;28;20485;-74
2023/06/01 01:54:41;;;;;;;26.80;11.23;;;;;;;10.46;90.23;102207.13;5008526;28;20045;-74
2023/06/01 01:57:08;;;;;;;23.95;11.88;;;;;;;10.40;90.61;102208.31;5007611;28;20458;-73
2023/06/01 01:59:33;;;;;;;27.50;12.60;;;;;;;10.32;91.05;102206.94;5026178;28;20116;-73
2023/06/01 02:01:59;;;;;;;24.55;11.75;;;;;;;10.29;91.29;102212.53;5028784;28;20120;-73
2023/06/01 02:04:25;;;;;;;29.42;12.98;;;;;;;10.25;91.43;102214.50;5030089;28;20060;-73
2023/06/01 02:06:51;;;;;;;22.88;12.07;;;;;;;10.21;91.28;102211.03;5028365;28;20060;-73
2023/06/01 02:09:16;;;;;;;29.48;12.05;;;;;;;10.17;91.84;102200.41;5021790;28;20459;-73
2023/06/01 02:11:43;;;;;;;20.70;12.32;;;;;;;10.15;91.17;102199.56;5009384;28;20030;-73
2023/06/01 02:14:09;;;;;;;20.98;10.93;;;;;;;10.13;91.38;102198.78;5008766;28;20259;-73
2023/06/01 02:16:35;;;;;;;25.05;10.85;;;;;;;10.09;91.71;102205.31;5009291;28;20093;-73
2023/06/01 02:19:02;;;;;;;24.52;12.10;;;;;;;10.05;91.77;102203.69;5007928;28;20125;-72
2023/06/01 02:21:27;;;;;;;18.88;10.20;;;;;;;10.04;91.54;102208.25;5003142;28;20597;-73
2023/06/01 02:24:04;;;;;;;21.17;11.35;;;;;;;10.09;91.59;102206.19;5008454;28;20034;-73
2023/06/01 02:26:30;;;;;;;20.95;10.85;;;;;;;10.08;91.95;102201.72;5007361;28;20036;-73
2023/06/01 02:28:56;;;;;;;26.13;10.90;;;;;;;10.07;91.62;102196.34;5010208;28;20022;-73
2023/06/01 02:31:21;;;;;;;20.40;10.52;;;;;;;10.05;91.78;102204.56;5028065;28;20501;-72
2023/06/01 02:33:47;;;;;;;20.15;9.73;;;;;;;10.04;91.94;102210.97;5017410;28;20038;-73
2023/06/01 02:36:12;;;;;;;19.52;9.95;;;;;;;10.07;91.28;102199.97;5008396;28;20057;-73
2023/06/01 02:38:38;;;;;;;20.30;9.52;;;;;;;10.08;91.54;102199.00;5014619;28;20231;-72
2023/06/01 02:41:03;;;;;;;18.55;10.02;;;;;;;10.07;91.31;102196.34;5008661;28;20038;-73
2023/06/01 02:43:29;;;;;;;18.00;9.13;;;;;;;10.13;91.64;102190.63;5026499;28;20464;-73
2023/06/01 02:45:55;;;;;;;20.08;8.75;;;;;;;10.16;91.58;102191.31;5007054;28;20034;-72
2023/06/01 02:48:21;;;;;;;17.00;8.23;;;;;;;10.14;90.67;102190.53;5007766;28;20446;-72
2023/06/01 02:50:47;;;;;;;17.23;8.63;;;;;;;10.09;91.70;102200.75;5008550;28;20041;-72
2023/06/01 02:53:13;;;;;;;22.98;8.35;;;;;;;10.05;91.38;102195.53;5007901;28;20132;-73
2023/06/01 02:55:38;;;;;;;14.77;7.45;;;;;;;10.04;91.82;102189.22;4990697;28;20057;-73
2023/06/01 02:58:18;;;;;;;19.67;8.60;;;;;;;10.03;91.64;102203.78;5016374;28;20017;-73
2023/06/01 03:00:57;;;;;;;13.32;7.72;;;;;;;9.99;91.70;102195.84;5025572;28;20040;-72
2023/06/01 03:03:27;;;;;;;16.00;8.77;;;;;;;9.96;92.05;102202.31;5027423;28;20029;-73
2023/06/01 03:05:53;;;;;;;15.40;7.22;;;;;;;9.88;92.23;102199.94;5028650;28;20030;-73
2023/06/01 03:08:44;;;;;;;18.98;7.43;;;;;;;9.90;92.20;102202.59;5026393;28;20037;-73
2023/06/01 03:11:26;;;;;;;11.30;7.63;;;;;;;9.89;92.42;102203.56;5026704;28;20044;-73
2023/06/01 03:13:51;;;;;;;18.30;7.32;;;;;;;9.87;92.82;102200.91;5024524;28;20292;-73
2023/06/01 03:16:17;;;;;;;18.75;8.45;;;;;;;9.90;92.76;102206.19;5009811;28;20116;-73
2023/06/01 03:18:58;;;;;;;17.40;7.65;;;;;;;9.94;92.27;102207.81;5007560;28;20026;-73
2023/06/01 03:21:24;;;;;;;14.93;7.45;;;;;;;10.00;92.25;102206.63;5008941;28;20041;-74
2023/06/01 03:23:50;;;;;;;15.80;7.15;;;;;;;9.99;92.05;102209.44;5024390;28;20040;-73
2023/06/01 03:26:18;;;;;;;15.25;7.88;;;;;;;10.00;92.34;102203.03;5026575;28;20109;-73
2023/06/01 03:28:44;;;;;;;16.83;8.35;;;;;;;9.96;92.55;102203.19;5009225;28;20060;-73
2023/06/01 03:31:11;;;;;;;14.45;7.85;;;;;;;10.05;90.92;102199.13;5023375;28;20104;-74
2023/06/01 03:33:37;;;;;;;12.70;7.32;;;;;;;10.13;91.47;102205.09;5008493;28;20048;-73
2023/06/01 03:36:04;;;;;;;14.75;7.15;;;;;;;10.08;91.18;102199.00;5023870;28;20141;-73
2023/06/01 03:38:30;;;;;;;17.92;7.53;;;;;;;10.07;91.14;102199.97;5020971;28;20040;-73
2023/06/01 03:40:55;;;;;;;17.55;7.63;;;;;;;10.01;90.98;102204.78;5006182;28;20405;-73
2023/06/01 03:43:21;;;;;;;15.65;8.07;;;;;;;9.94;91.18;102201.50;5008151;28;20045;-73
2023/06/01 03:45:46;;;;;;;13.82;8.13;;;;;;;9.92;91.81;102201.56;5022526;28;20037;-73
2023/06/01 03:48:11;;;;;;;13.13;8.02;;;;;;;9.96;90.85;102208.63;5027925;28;20038;-73
2023/06/01 03:50:37;;;;;;;15.55;7.88;;;;;;;10.06;90.73;102202.72;5026471;28;20488;-73
2023/06/01 03:53:04;;;;;;;16.77;7.75;;;;;;;10.10;90.57;102212.50;5006703;28;20411;-74
2023/06/01 03:55:30;;;;;;;18.10;8.48;;;;;;;10.18;90.78;102208.47;5005680;28;20040;-73
2023/06/01 03:58:07;;;;;;;15.43;7.75;;;;;;;10.21;90.55;102212.84;5015246;28;20022;-73
2023/06/01 04:00:32;;;;;;;14.88;8.18;;;;;;;10.25;89.93;102211.78;5025054;28;20120;-73
2023/06/01 04:03:02;;;;;;;15.75;6.97;;;;;;;10.26;89.46;102213.56;5010285;28;20504;-74
2023/06/01 04:05:28;;;;;;;13.65;7.57;;;;;;;10.27;89.81;102209.88;5009407;28;20494;-72
2023/06/01 04:07:55;;;;;;;12.20;7.15;;;;;;;10.27;89.81;102223.50;5006599;28;20053;-73
2023/06/01 04:10:21;;;;;;;15.95;7.05;;;;;;;10.31;89.37;102219.66;5005586;28;20589;-73
2023/06/01 04:12:49;;;;;;;14.00;6.32;;;;;;;10.39;89.13;102208.38;5008114;28;20071;-73
2023/06/01 04:15:16;;;;;;;17.88;7.30;;;;;;;10.35;88.76;102213.13;5014682;28;20025;-73
2023/06/01 04:17:43;;;;;;;17.70;7.90;;;;;;;10.28;89.45;102210.75;5006247;28;20045;-73
2023/06/01 04:20:10;;;;;;;15.02;7.10;;;;;;;10.22;89.29;102214.66;5015116;28;20026;-73
2023/06/01 04:22:37;;;;;;;15.82;6.88;;;;;;;10.17;89.45;102212.16;5005930;28;20100;-73
2023/06/01 04:25:07;;;;;;;17.23;7.93;;;;;;;10.17;89.03;102211.28;5006966;28;20037;-73
2023/06/01 04:27:36;;;;;;;12.77;7.45;;;;;;;10.15;87.95;102215.88;5005211;28;20482;-72
2023/06/01 04:30:03;;;;;;;13.40;7.28;;;;;;;10.11;89.00;102216.97;5015023;28;20061;-73
2023/06/01 04:32:29;;;;;;;14.77;7.60;;;;;;;10.11;88.83;102215.16;5006269;28;20370;-72
2023/06/01 04:34:56;;;;;;;17.23;9.05;;;;;;;10.05;89.19;102218.16;5005851;28;20049;-72
2023/06/01 04:37:22;;;;;;;16.75;8.25;;;;;;;10.05;88.56;102223.59;5005639;28;20041;-73
2023/06/01 04:39:51;;;;;;;19.92;7.95;;;;;;;10.04;88.85;102227.28;4990518;28;20053;-72
2023/06/01 04:42:18;;;;;;;14.23;7.85;;;;;;;10.10;88.62;102228.81;5005297;28;20120;-72
2023/06/01 04:44:46;;;;;;;17.48;8.52;;;;;;;10.14;88.63;102230.44;4997457;28;20439;-72
2023/06/01 04:47:12;;;;;;;19.08;8.23;;;;;;;10.18;88.70;102229.34;5013042;28;20030;-72
2023/06/01 04:49:41;;;;;;;20.17;8.48;;;;;;;10.20;88.01;102225.56;5017160;28;20619;-72
2023/06/01 04:52:07;;;;;;;18.83;8.65;;;;;;;10.21;88.71;102237.34;5003712;28;20029;-72
2023/06/01 04:54:33;;;;;;;13.32;8.13;;;;;;;10.23;88.41;102235.44;4999924;28;20048;-72
2023/06/01 04:56:58;;;;;;;14.90;8.05;;;;;;;10.25;88.30;102228.09;5003979;28;20034;-72
2023/06/01 04:59:24;;;;;;;12.15;7.15;;;;;;;10.21;88.06;102232.81;5007300;28;20104;-72
2023/06/01 05:01:49;;;;;;;16.55;8.23;;;;;;;10.19;87.30;102231.97;5005257;28;20034;-72
2023/06/01 05:04:14;;;;;;;17.58;8.68;;;;;;;10.21;88.25;102227.38;5005771;28;20022;-72
2023/06/01 05:06:40;;;;;;;18.73;8.65;;;;;;;10.32;86.89;102217.81;5005127;28;20048;-72
2023/06/01 05:09:06;;;;;;;20.73;8.35;;;;;;;10.37;87.45;102211.19;5004614;28;20033;-71
2023/06/01 05:11:31;;;;;;;13.63;7.88;;;;;;;10.39;87.12;102208.38;5011041;28;20028;-72
2023/06/01 05:14:01;;;;;;;14.82;8.35;;;;;;;10.48;87.50;102211.53;5009558;28;20033;-73
2023/06/01 05:16:27;;;;;;;17.23;8.30;;;;;;;10.59;86.22;102221.88;5012537;28;20034;-72
2023/06/01 05:18:53;;;;;;;18.42;7.80;;;;;;;10.66;86.80;102222.44;5005389;28;20026;-72
2023/06/01 05:21:19;;;;;;;15.77;8.00;;;;;;;10.73;86.10;102211.19;5004408;28;20175;-72
2023/06/01 05:23:44;;;;;;;18.60;8.25;;;;;;;10.78;85.59;102215.50;5025461;28;20551;-73
2023/06/01 05:26:11;;;;;;;18.15;8.05;;;;;;;10.78;86.06;102210.06;5026786;28;20065;-73
2023/06/01 05:28:36;;;;;;;21.58;10.45;;;;;;;10.87;84.86;102218.63;5003857;28;20121;-72
2023/06/01 05:31:03;;;;;;;16.38;7.85;;;;;;;10.95;85.67;102218.22;5024294;28;20058;-73
2023/06/01 05:33:31;;;;;;;19.55;7.68;;;;;;;11.14;84.33;102219.00;5009813;28;20512;-73
2023/06/01 05:35:57;;;;;;;17.35;7.93;;;;;;;11.46;83.56;102221.88;5026356;28;20136;-73
2023/06/01 05:38:25;;;;;;;21.35;8.07;;;;;;;11.69;82.92;102210.59;5008565;28;20065;-73
2023/06/01 05:40:50;;;;;;;18.05;8.27;;;;;;;11.79;81.02;102220.97;5010543;28;20033;-73
2023/06/01 05:43:16;;;;;;;18.20;8.57;;;;;;;11.64;81.09;102217.25;5008953;28;20061;-73
2023/06/01 05:45:42;;;;;;;15.60;8.15;;;;;;;11.53;81.44;102222.44;5008352;28;20070;-72
2023/06/01 05:48:07;;;;;;;17.02;7.80;;;;;;;11.41;81.67;102213.94;5008267;28;20038;-72
2023/06/01 05:50:32;;;;;;;14.15;8.13;;;;;;;11.48;81.94;102217.22;5008450;28;20029;-73
2023/06/01 05:52:58;;;;;;;18.63;7.47;;;;;;;11.51;82.82;102217.03;5008142;28;20105;-72
2023/06/01 05:55:23;;;;;;;19.55;8.57;;;;;;;11.53;82.69;102217.84;5006968;28;20385;-72
2023/06/01 05:57:48;;;;;;;17.75;8.68;;;;;;;11.54;81.39;102225.06;5007188;28;20033;-72
2023/06/01 06:00:16;;;;;;;17.58;7.97;;;;;;;11.58;81.49;102220.34;5022358;28;20075;-72
2023/06/01 06:02:44;;;;;;;15.90;8.57;;;;;;;11.61;80.61;102222.88;5025827;28;20034;-72
2023/06/01 06:05:10;;;;;;;19.60;8.40;;;;;;;11.65;81.00;102225.34;5009508;28;20042;-72
2023/06/01 06:07:36;;;;;;;18.58;8.80;;;;;;;11.57;80.69;102221.31;5008730;28;20040;-72
2023/06/01 06:10:03;;;;;;;17.73;8.05;;;;;;;11.57;80.37;102224.03;5008708;28;20504;-73
2023/06/01 06:12:28;;;;;;;17.90;8.45;;;;;;;11.63;80.59;102213.66;5019178;28;20041;-72
2023/06/01 06:14:53;;;;;;;16.75;9.65;;;;;;;11.86;80.75;102217.88;5017193;28;20030;-73
2023/06/01 06:17:19;;;;;;;18.63;8.32;;;;;;;12.17;78.76;102227.94;5015638;28;20042;-73
2023/06/01 06:19:45;;;;;;;24.75;8.40;;;;;;;12.17;78.48;102235.22;5009922;28;20552;-73
2023/06/01 06:22:11;;;;;;;21.08;7.65;;;;;;;12.04;79.05;102229.59;5009025;28;20042;-73
2023/06/01 06:24:36;;;;;;;16.48;7.85;;;;;;;11.96;78.28;102240.06;5009043;28;20466;-73
2023/06/01 06:27:02;;;;;;;15.90;8.52;;;;;;;11.82;79.41;102231.72;5007881;28;20030;-73
2023/06/01 06:29:27;;;;;;;18.58;8.65;;;;;;;11.74;79.55;102229.41;5008785;28;20045;-72
2023/06/01 06:31:53;;;;;;;15.70;8.48;;;;;;;11.73;79.36;102236.72;5009326;28;20053;-72
2023/06/01 06:34:19;;;;;;;14.85;8.55;;;;;;;11.70;79.90;102233.28;5009886;28;20045;-73
2023/06/01 06:36:44;;;;;;;19.98;8.85;;;;;;;11.74;79.77;102222.13;5006714;28;20049;-73
2023/06/01 06:39:10;;;;;;;16.02;8.07;;;;;;;11.85;80.62;102216.13;5008791;28;20040;-72
2023/06/01 06:41:35;;;;;;;15.60;7.68;;;;;;;12.05;79.03;102209.53;5010834;28;20042;-73
2023/06/01 06:44:01;;;;;;;18.33;8.88;;;;;;;12.46;80.46;102223.53;5009053;28;20038;-73
2023/06/01 06:46:26;;;;;;;19.77;8.35;;;;;;;12.73;77.72;102223.75;5029012;28;20053;-73
2023/06/01 06:48:51;;;;;;;20.70;8.93;;;;;;;12.95;76.04;102226.06;5028144;28;20036;-73
2023/06/01 06:51:17;;;;;;;18.58;8.32;;;;;;;12.92;76.87;102226.25;5025346;28;20041;-73
2023/06/01 06:53:42;;;;;;;15.93;8.15;;;;;;;13.02;75.92;102226.59;5008296;28;20666;-73
2023/06/01 06:56:07;;;;;;;15.02;8.80;;;;;;;12.91;75.08;102231.81;5007432;28;20181;-73
2023/06/01 06:58:33;;;;;;;16.58;8.68;;;;;;;12.62;75.91;102231.69;5008409;28;20033;-73
2023/06/01 07:00:59;;;;;;;21.55;8.18;;;;;;;12.66;75.92;102238.72;5024465;28;20473;-73
2023/06/01 07:03:24;;;;;;;16.27;8.95;;;;;;;12.62;76.41;102239.00;5019161;28;20037;-72
2023/06/01 07:05:49;;;;;;;18.27;9.13;;;;;;;12.63;75.96;102243.47;5008283;28;20501;-72
2023/06/01 07:08:15;;;;;;;19.00;9.73;;;;;;;12.72;76.62;102243.81;5009843;28;20316;-73
2023/06/01 07:10:40;;;;;;;16.92;9.75;;;;;;;12.99;75.36;102238.56;5027105;28;20063;-73
2023/06/01 07:13:06;;;;;;;14.68;8.80;;;;;;;13.17;74.71;102242.03;5018986;28;20052;-72
2023/06/01 07:15:31;;;;;;;23.48;8.88;;;;;;;13.13;73.54;102229.53;5011428;28;20117;-73
2023/06/01 07:17:56;;;;;;;13.10;8.18;;;;;;;13.23;75.07;102235.34;5008453;28;20065;-73
2023/06/01 07:20:22;;;;;;;20.48;9.00;;;;;;;13.27;73.50;102235.06;5008372;28;20053;-73
2023/06/01 07:22:49;;;;;;;16.95;7.72;;;;;;;13.17;73.96;102232.97;5009512;28;20084;-73
2023/06/01 07:25:15;;;;;;;20.95;8.68;;;;;;;13.08;73.73;102234.41;5024527;28;20033;-72
2023/06/01 07:27:43;;;;;;;22.60;9.35;;;;;;;13.02;73.80;102230.19;5024007;28;20048;-72
2023/06/01 07:30:10;;;;;;;20.27;8.88;;;;;;;12.90;73.04;102232.78;5018380;28;20518;-72
2023/06/01 07:32:36;;;;;;;11.60;7.93;;;;;;;12.74;73.82;102232.81;5028293;28;20053;-73
2023/06/01 07:35:02;;;;;;;22.73;8.95;;;;;;;12.61;74.64;102229.94;5009544;28;20085;-72
2023/06/01 07:37:27;;;;;;;15.63;8.52;;;;;;;12.60;76.25;102233.63;5008221;28;20033;-73
2023/06/01 07:39:56;;;;;;;20.38;8.63;;;;;;;12.61;76.28;102231.78;5007508;28;20041;-73
2023/06/01 07:42:21;;;;;;;14.15;8.38;;;;;;;12.66;75.54;102219.63;5006027;28;20478;-72
2023/06/01 07:44:47;;;;;;;18.27;8.90;;;;;;;12.71;76.47;102222.94;5008697;28;20040;-73
2023/06/01 07:47:12;;;;;;;16.75;8.40;;;;;;;12.79;75.55;102227.97;5007880;28;20546;-73
2023/06/01 07:49:37;;;;;;;15.18;7.60;;;;;;;12.97;77.06;102223.25;5008287;28;20077;-73
2023/06/01 07:52:04;;;;;;;18.52;7.80;;;;;;;13.21;75.34;102227.22;5007979;28;20486;-72
2023/06/01 07:54:30;;;;;;;14.32;8.27;;;;;;;13.31;73.99;102240.34;5013657;28;20037;-73
2023/06/01 07:56:56;;;;;;;15.48;7.72;;;;;;;13.18;73.00;102235.59;5026721;28;20497;-72
2023/06/01 07:59:22;;;;;;;19.02;9.45;;;;;;;13.15;74.74;102237.63;5010266;28;20035;-73
2023/06/01 08:01:51;;;;;;;21.45;9.05;;;;;;;13.21;73.46;102235.41;5008634;28;20048;-73
2023/06/01 08:04:20;;;;;;;23.45;8.55;;;;;;;13.17;72.87;102230.22;5007228;28;20050;-73
2023/06/01 08:06:46;;;;;;;20.77;9.75;;;;;;;13.55;74.28;102227.00;5008554;28;20077;-72
2023/06/01 08:09:12;;;;;;;17.95;8.32;;;;;;;13.75;72.22;102221.13;5007312;28;20026;-72
2023/06/01 08:11:37;;;;;;;21.20;8.77;;;;;;;13.84;72.37;102220.56;5006976;28;20483;-72
2023/06/01 08:14:04;;;;;;;17.58;8.93;;;;;;;14.12;69.82;102227.84;5018659;28;20059;-72
2023/06/01 08:16:30;;;;;;;18.98;8.73;;;;;;;14.74;71.40;102219.22;5007507;28;20042;-72
2023/06/01 08:18:56;;;;;;;15.63;8.27;;;;;;;15.05;67.95;102223.44;5008010;28;20030;-73
2023/06/01 08:21:24;;;;;;;17.58;8.30;;;;;;;15.81;68.24;102218.06;5009302;28;20025;-72
2023/06/01 08:23:51;;;;;;;16.52;7.82;;;;;;;16.57;66.38;102216.97;5026917;28;20501;-72
2023/06/01 08:26:18;;;;;;;18.05;9.23;;;;;;;16.92;63.00;102213.41;5027028;28;20021;-72
2023/06/01 08:28:51;;;;;;;16.23;8.93;;;;;;;17.22;61.08;102218.41;4992763;28;20109;-72
2023/06/01 08:31:20;;;;;;;18.80;8.80;;;;;;;17.34;61.40;102216.53;5008342;28;20045;-73
2023/06/01 08:33:47;;;;;;;14.75;9.50;;;;;;;16.99;58.82;102214.69;5008190;28;20519;-72
2023/06/01 08:36:12;;;;;;;15.65;8.93;;;;;;;17.03;61.09;102223.59;5023396;28;20414;-72
2023/06/01 08:38:39;;;;;;;21.23;9.15;;;;;;;17.23;62.27;102222.03;5026603;28;20188;-71
2023/06/01 08:41:24;;;;;;;15.43;9.07;;;;;;;17.12;59.35;102213.75;5011740;28;20074;-72
2023/06/01 08:44:02;;;;;;;17.13;8.73;;;;;;;17.57;62.60;102212.84;5007051;28;20042;-72
2023/06/01 08:46:29;;;;;;;15.65;7.80;;;;;;;18.22;59.59;102214.00;5027013;28;20045;-72
2023/06/01 08:48:55;;;;;;;17.83;8.88;;;;;;;18.70;57.56;102210.03;5020972;28;20018;-70
2023/06/01 08:51:25;;;;;;;17.38;7.90;;;;;;;18.96;56.54;102208.66;5007185;28;20052;-71
2023/06/01 08:53:52;;;;;;;15.80;9.27;;;;;;;18.41;56.24;102206.94;5006947;28;20172;-72
2023/06/01 08:56:18;;;;;;;15.75;8.93;;;;;;;17.97;55.33;102204.13;5006707;28;20477;-71
2023/06/01 08:58:44;;;;;;;16.75;9.55;;;;;;;17.51;57.54;102205.06;5006463;28;20495;-71
2023/06/01 09:01:15;;;;;;;14.55;9.18;;;;;;;17.87;59.30;102199.53;5006875;28;20164;-71
2023/06/01 09:03:41;;;;;;;19.52;9.02;;;;;;;17.95;57.75;102194.22;5007070;28;20058;-71
2023/06/01 09:06:06;;;;;;;19.23;8.77;;;;;;;18.04;56.23;102202.59;5005632;28;20540;-71
2023/06/01 09:08:32;;;;;;;19.70;9.68;;;;;;;18.18;58.34;102189.56;5006513;28;20038;-72
2023/06/01 09:10:58;;;;;;;17.95;8.52;;;;;;;18.20;54.91;102191.22;5006496;28;20034;-72
2023/06/01 09:13:33;;;;;;;18.52;9.38;;;;;;;17.98;56.86;102200.38;5006769;28;20038;-71
2023/06/01 09:15:58;;;;;;;18.38;9.57;;;;;;;18.60;57.14;102193.34;5008895;28;20405;-71
2023/06/01 09:18:24;;;;;;;18.90;8.88;;;;;;;19.37;57.49;102182.09;5007175;28;20017;-72
2023/06/01 09:20:52;;;;;;;21.70;9.63;;;;;;;19.75;56.30;102177.84;5005742;28;20172;-72
2023/06/01 09:23:27;;;;;;;15.80;9.32;;;;;;;20.09;55.32;102179.25;5007553;28;20052;-72
2023/06/01 09:26:12;;;;;;;15.48;8.40;;;;;;;20.35;53.22;102187.06;5006238;28;20053;-72
2023/06/01 09:28:54;;;;;;;17.88;9.55;;;;;;;19.90;50.79;102183.84;5006716;28;20069;-72
2023/06/01 09:31:42;;;;;;;19.17;9.80;;;;;;;19.60;53.54;102178.22;5006983;28;20074;-73
2023/06/01 09:34:21;;;;;;;18.50;10.38;;;;;;;19.68;51.60;102168.34;5007143;28;20041;-72
2023/06/01 09:36:51;;;;;;;19.23;9.07;;;;;;;19.93;51.51;102162.34;5006887;28;20132;-73
2023/06/01 09:39:19;;;;;;;17.35;9.50;;;;;;;19.75;50.99;102164.91;5008169;28;20109;-71
2023/06/01 09:41:58;;;;;;;16.98;9.65;;;;;;;20.11;54.51;102168.09;5025532;28;20415;-72
2023/06/01 09:44:31;;;;;;;19.98;10.10;;;;;;;20.45;50.50;102159.44;5012912;28;20041;-72
2023/06/01 09:47:28;;;;;;;15.48;8.48;;;;;;;20.83;53.29;102153.94;5026632;28;20179;-72
2023/06/01 09:49:53;;;;;;;19.90;9.70;;;;;;;21.25;51.59;102156.38;5005306;28;20058;-72
2023/06/01 09:52:21;;;;;;;19.05;9.95;;;;;;;20.70;49.11;102160.78;5006832;28;20078;-72
2023/06/01 09:54:48;;;;;;;19.92;9.75;;;;;;;20.04;51.17;102155.84;5006833;28;20032;-72
2023/06/01 09:57:23;;;;;;;18.02;10.02;;;;;;;20.34;52.29;102163.22;5004722;28;20042;-72
2023/06/01 09:59:49;;;;;;;21.70;9.57;;;;;;;20.60;48.75;102161.66;5006624;28;20045;-73
2023/06/01 10:02:23;;;;;;;18.25;10.38;;;;;;;20.92;52.26;102151.31;5007277;28;20478;-72
2023/06/01 10:04:50;;;;;;;19.58;9.73;;;;;;;21.06;49.08;102160.03;5005531;28;20042;-72
2023/06/01 10:07:16;;;;;;;16.48;10.02;;;;;;;20.76;47.07;102161.09;5006917;28;20119;-73
2023/06/01 10:09:45;;;;;;;22.05;10.52;;;;;;;20.60;50.42;102142.28;5006832;28;20022;-72
2023/06/01 10:12:11;;;;;;;18.88;10.82;;;;;;;21.18;49.84;102148.84;5009014;28;20050;-71
2023/06/01 10:14:39;;;;;;;16.08;9.60;;;;;;;21.62;49.10;102141.72;5012743;28;20038;-71
2023/06/01 10:17:05;;;;;;;18.30;9.85;;;;;;;22.05;47.04;102148.50;5010439;28;20164;-72
2023/06/01 10:19:31;;;;;;;20.52;10.18;;;;;;;21.91;47.30;102149.91;5009983;28;20090;-73
2023/06/01 10:21:57;;;;;;;15.55;10.07;;;;;;;21.80;47.68;102148.22;5009968;28;20460;-72
2023/06/01 10:24:23;;;;;;;19.02;11.77;;;;;;;21.81;51.11;102144.41;5009626;28;20041;-72
2023/06/01 10:27:23;;;;;;;20.13;10.63;;;;;;;21.78;48.80;102135.56;5009302;28;20514;-73
2023/06/01 10:29:52;;;;;;;22.70;10.93;;;;;;;22.24;47.83;102134.56;5021535;28;20068;-72
2023/06/01 10:32:36;;;;;;;20.13;11.63;;;;;;;22.39;47.27;102130.25;5010402;28;20071;-73
2023/06/01 10:35:05;;;;;;;19.80;11.95;;;;;;;21.72;45.66;102137.00;5009532;28;20151;-73
2023/06/01 10:37:31;;;;;;;18.60;10.35;;;;;;;21.91;49.49;102131.38;5009862;28;20389;-73
2023/06/01 10:40:21;;;;;;;20.30;12.57;;;;;;;21.81;47.84;102147.19;5009413;28;20522;-73
2023/06/01 10:42:47;;;;;;;19.10;9.85;;;;;;;21.88;44.00;102140.00;5009391;28;20076;-73
2023/06/01 10:45:40;;;;;;;16.67;10.45;;;;;;;22.22;46.30;102138.53;5009391;28;20038;-71
2023/06/01 10:48:11;;;;;;;15.18;9.85;;;;;;;22.13;44.35;102134.78;5009416;28;20072;-73
2023/06/01 10:50:40;;;;;;;18.90;10.80;;;;;;;21.58;44.87;102134.75;5009583;28;20462;-73
2023/06/01 10:53:26;;;;;;;20.75;10.75;;;;;;;21.61;47.70;102134.44;5009315;28;20116;-73
2023/06/01 10:56:26;;;;;;;23.75;11.77;;;;;;;22.02;46.53;102135.00;5008595;28;20038;-73
2023/06/01 10:59:07;;;;;;;17.80;11.23;;;;;;;22.12;46.66;102130.28;5020490;28;20140;-72
2023/06/01 11:01:38;;;;;;;19.48;11.30;;;;;;;21.88;45.59;102119.75;5029037;28;20033;-72
2023/06/01 11:04:04;;;;;;;18.63;11.43;;;;;;;22.25;44.69;102129.91;5029139;28;20076;-72
2023/06/01 11:06:37;;;;;;;22.42;11.50;;;;;;;22.17;46.10;102118.72;5027946;28;20072;-73
2023/06/01 11:09:07;;;;;;;23.33;10.68;;;;;;;22.25;48.22;102122.47;5028824;28;20033;-72
2023/06/01 11:11:47;;;;;;;20.33;12.63;;;;;;;22.25;46.04;102116.06;5019222;28;20564;-73
2023/06/01 11:14:14;;;;;;;16.60;10.35;;;;;;;22.27;47.17;102114.00;5017480;28;20303;-72
2023/06/01 11:16:40;;;;;;;21.02;11.27;;;;;;;22.70;48.63;102109.56;5009099;28;20462;-72
2023/06/01 11:19:06;;;;;;;19.85;10.73;;;;;;;23.26;46.72;102103.59;5009023;28;20037;-72
2023/06/01 11:21:43;;;;;;;19.98;10.18;;;;;;;23.31;45.07;102103.97;5008494;28;20113;-72